Time;durP1;ratioP1;P1;durP2;ratioP2;P2;SDS_P1;SDS_P2;PMS_P1;PMS_P2;Temp;Humidity;BMP_temperature;BMP_pressure;BME280_temperature;BME280_humidity;BME280_pressure;Samples;Min_cycle;Max_cycle;Signal;HPM_P1;HPM_P2
2022/07/24 00:01:32;;;;;;;25.02;11.40;;;;;;;23.68;53.69;94846.59;4953729;28;20218;-85
2022/07/24 00:03:58;;;;;;;26.73;11.70;;;;;;;23.65;54.04;94847.19;4955854;28;20212;-85
2022/07/24 00:06:25;;;;;;;25.05;11.68;;;;;;;23.64;53.36;94849.06;4958075;28;20201;-85
2022/07/24 00:08:54;;;;;;;26.75;12.32;;;;;;;23.63;54.04;94846.72;4952351;28;20273;-84
2022/07/24 00:11:21;;;;;;;27.85;12.25;;;;;;;23.36;53.87;94833.38;4955716;28;20205;-84
2022/07/24 00:13:48;;;;;;;29.75;12.30;;;;;;;23.21;55.34;94839.75;4956033;28;20201;-84
2022/07/24 00:16:15;;;;;;;21.10;11.60;;;;;;;23.16;55.78;94850.44;4955386;28;20284;-84
2022/07/24 00:18:41;;;;;;;25.58;12.40;;;;;;;23.17;56.05;94849.38;4954897;28;20225;-85
2022/07/24 00:21:08;;;;;;;25.85;12.15;;;;;;;23.09;55.94;94848.16;4955720;28;20202;-84
2022/07/24 00:23:35;;;;;;;27.17;12.13;;;;;;;23.10;56.21;94838.34;4955787;28;20232;-84
2022/07/24 00:26:04;;;;;;;26.05;11.43;;;;;;;23.04;56.05;94850.13;4956319;28;20656;-86
2022/07/24 00:28:31;;;;;;;25.98;11.07;;;;;;;23.01;55.20;94848.03;4952548;28;20216;-86
2022/07/24 00:30:58;;;;;;;25.35;10.65;;;;;;;22.91;55.36;94833.09;4955742;28;20596;-86
2022/07/24 00:33:25;;;;;;;20.90;10.50;;;;;;;22.88;56.43;94839.00;4953711;28;20202;-86
2022/07/24 00:35:52;;;;;;;22.85;10.13;;;;;;;22.90;56.48;94841.34;4952839;28;20208;-85
2022/07/24 00:38:19;;;;;;;24.17;10.90;;;;;;;23.06;56.41;94845.28;4955854;28;20233;-86
2022/07/24 00:40:46;;;;;;;23.45;11.68;;;;;;;23.06;56.46;94846.09;4957145;28;20209;-86
2022/07/24 00:43:16;;;;;;;19.35;10.30;;;;;;;22.98;56.67;94852.06;4952428;28;20197;-83
2022/07/24 00:45:43;;;;;;;24.38;10.43;;;;;;;22.83;56.38;94833.75;4954948;28;20253;-85
2022/07/24 00:48:10;;;;;;;25.45;10.70;;;;;;;22.88;57.30;94848.81;4956117;28;20209;-86
2022/07/24 00:50:37;;;;;;;19.98;10.40;;;;;;;22.83;57.55;94854.19;4955022;28;20735;-84
2022/07/24 00:53:04;;;;;;;23.80;10.80;;;;;;;22.83;57.93;94852.31;4951939;28;20292;-83
2022/07/24 00:55:33;;;;;;;19.70;10.88;;;;;;;22.79;58.19;94838.06;4952900;28;20687;-84
2022/07/24 00:58:00;;;;;;;20.83;10.40;;;;;;;22.73;58.31;94839.22;4951551;28;20213;-85
2022/07/24 01:00:29;;;;;;;20.00;10.40;;;;;;;22.68;58.63;94843.81;4951520;29;20683;-85
2022/07/24 01:02:56;;;;;;;30.20;13.90;;;;;;;22.53;58.03;94847.44;4953376;28;20314;-85
2022/07/24 01:05:23;;;;;;;23.52;11.13;;;;;;;22.53;58.79;94845.59;4948461;28;20288;-85
2022/07/24 01:07:50;;;;;;;31.10;13.20;;;;;;;22.52;58.71;94848.50;4958054;28;20208;-85
2022/07/24 01:10:17;;;;;;;28.40;13.32;;;;;;;22.50;59.16;94848.81;4945800;28;20221;-86
2022/07/24 01:12:44;;;;;;;34.70;15.88;;;;;;;22.59;58.20;94844.44;4950714;28;20228;-86
2022/07/24 01:15:12;;;;;;;32.03;14.75;;;;;;;22.60;57.85;94835.41;4951460;28;20593;-86
2022/07/24 01:17:42;;;;;;;31.67;14.68;;;;;;;22.63;57.81;94844.63;4949799;29;20209;-86
2022/07/24 01:20:10;;;;;;;42.90;16.38;;;;;;;22.58;57.79;94834.91;4952370;28;20596;-84
2022/07/24 01:22:39;;;;;;;33.58;14.85;;;;;;;22.49;58.86;94831.34;4953057;28;20220;-86
2022/07/24 01:25:06;;;;;;;30.63;14.73;;;;;;;22.44;58.87;94830.63;4952361;28;20692;-83
2022/07/24 01:27:33;;;;;;;29.80;13.93;;;;;;;22.41;58.61;94834.63;4953784;28;20224;-84
2022/07/24 01:30:00;;;;;;;31.55;13.10;;;;;;;22.36;57.83;94837.38;4956819;28;20206;-84
2022/07/24 01:32:27;;;;;;;27.48;13.35;;;;;;;22.29;58.79;94830.84;4952718;28;20225;-84
2022/07/24 01:34:54;;;;;;;27.75;13.35;;;;;;;22.28;59.59;94829.28;4951649;28;20213;-84
2022/07/24 01:37:20;;;;;;;34.13;12.85;;;;;;;22.31;59.13;94834.00;4949739;28;20209;-85
2022/07/24 01:39:49;;;;;;;30.10;13.30;;;;;;;22.31;59.23;94834.00;4953967;28;20240;-84
2022/07/24 01:42:15;;;;;;;36.78;13.75;;;;;;;22.31;59.08;94831.34;4953065;28;20224;-85
2022/07/24 01:44:42;;;;;;;29.50;12.77;;;;;;;22.31;58.44;94829.47;4954780;28;20678;-85
2022/07/24 01:47:09;;;;;;;28.98;11.95;;;;;;;22.32;58.37;94825.75;4955223;28;20229;-84
2022/07/24 01:49:36;;;;;;;31.90;11.90;;;;;;;22.32;58.67;94823.09;4951343;28;20301;-85
2022/07/24 01:52:04;;;;;;;23.20;11.38;;;;;;;22.30;58.37;94819.97;4938526;29;20256;-85
2022/07/24 01:54:31;;;;;;;23.98;12.50;;;;;;;22.18;58.53;94813.50;4933830;29;20205;-84
2022/07/24 01:56:59;;;;;;;34.13;13.10;;;;;;;22.14;58.33;94815.16;4935270;29;20632;-84
2022/07/24 01:59:26;;;;;;;32.65;12.75;;;;;;;22.17;58.37;94809.28;4931522;29;20225;-85
2022/07/24 02:01:53;;;;;;;25.33;12.82;;;;;;;22.25;58.54;94817.38;4933886;29;20217;-85
2022/07/24 02:04:20;;;;;;;29.00;13.75;;;;;;;22.28;58.11;94813.38;4937127;29;20217;-84
2022/07/24 02:06:46;;;;;;;27.55;14.00;;;;;;;22.23;58.39;94811.56;4933981;29;20216;-84
2022/07/24 02:09:13;;;;;;;29.45;14.57;;;;;;;22.25;58.41;94819.25;4932529;29;20668;-85
2022/07/24 02:11:40;;;;;;;29.85;14.65;;;;;;;22.30;58.64;94819.16;4939018;29;20209;-84
2022/07/24 02:14:08;;;;;;;31.23;13.55;;;;;;;22.30;58.61;94808.56;4935035;29;20221;-83
2022/07/24 02:16:35;;;;;;;29.15;13.18;;;;;;;22.31;58.40;94815.47;4934422;29;20217;-84
2022/07/24 02:19:02;;;;;;;31.38;13.52;;;;;;;22.34;58.62;94807.72;4933780;29;20233;-83
2022/07/24 02:21:29;;;;;;;25.75;13.07;;;;;;;22.37;58.12;94816.94;4933507;29;20213;-82
2022/07/24 02:23:56;;;;;;;23.92;11.95;;;;;;;22.33;57.58;94810.66;4944431;29;20212;-82
2022/07/24 02:26:23;;;;;;;28.27;12.43;;;;;;;22.32;57.90;94817.81;4931289;29;20257;-83
2022/07/24 02:28:50;;;;;;;27.17;12.35;;;;;;;22.23;57.87;94813.44;4934914;29;20202;-83
2022/07/24 02:31:18;;;;;;;26.88;11.57;;;;;;;22.18;57.91;94813.50;4932046;29;20210;-83
2022/07/24 02:33:45;;;;;;;29.40;11.27;;;;;;;22.19;57.67;94817.75;4928827;29;20668;-82
2022/07/24 02:36:12;;;;;;;25.80;10.95;;;;;;;22.12;57.91;94819.94;4931501;29;20740;-82
2022/07/24 02:38:39;;;;;;;20.67;9.90;;;;;;;22.13;57.78;94821.53;4936512;29;20245;-82
2022/07/24 02:41:06;;;;;;;29.67;11.02;;;;;;;22.14;57.94;94829.19;4934216;29;20644;-82
2022/07/24 02:43:33;;;;;;;24.58;10.25;;;;;;;22.14;58.15;94825.72;4934543;29;20324;-84
2022/07/24 02:46:00;;;;;;;21.25;10.23;;;;;;;22.09;58.03;94823.16;4934520;29;20228;-85
2022/07/24 02:48:29;;;;;;;19.05;10.43;;;;;;;22.15;58.25;94820.16;4929270;29;20206;-84
2022/07/24 02:50:55;;;;;;;13.48;9.23;;;;;;;22.16;57.02;94818.31;4927454;29;20249;-84
2022/07/24 02:53:22;;;;;;;17.08;9.60;;;;;;;22.04;57.16;94819.53;4938399;29;20201;-84
2022/07/24 02:55:49;;;;;;;19.00;9.52;;;;;;;21.85;57.36;94821.31;4934767;29;20680;-82
2022/07/24 02:58:16;;;;;;;18.52;9.48;;;;;;;21.67;58.04;94823.94;4932939;29;20214;-82
2022/07/24 03:00:43;;;;;;;21.00;10.10;;;;;;;21.63;59.63;94818.41;4937111;29;20229;-82
2022/07/24 03:03:11;;;;;;;27.70;10.25;;;;;;;21.66;59.77;94825.78;4939327;29;20210;-82
2022/07/24 03:05:39;;;;;;;21.95;9.63;;;;;;;21.66;60.09;94814.41;4934461;29;20268;-82
2022/07/24 03:08:06;;;;;;;18.90;9.40;;;;;;;21.61;60.54;94806.53;4935125;29;20221;-82
2022/07/24 03:10:33;;;;;;;22.83;9.48;;;;;;;21.65;60.47;94820.75;4936702;29;20764;-82
2022/07/24 03:13:00;;;;;;;21.40;10.05;;;;;;;21.65;60.76;94821.56;4937199;29;20220;-82
2022/07/24 03:15:27;;;;;;;24.75;9.50;;;;;;;21.60;61.10;94811.03;4932754;29;20213;-81
2022/07/24 03:17:54;;;;;;;25.80;9.73;;;;;;;21.51;60.52;94828.59;4938194;29;20201;-81
2022/07/24 03:20:23;;;;;;;17.83;10.23;;;;;;;21.44;61.82;94828.94;4940168;29;20659;-83
2022/07/24 03:22:51;;;;;;;16.38;9.60;;;;;;;21.46;61.86;94821.53;4935783;29;20209;-84
2022/07/24 03:25:19;;;;;;;18.05;10.00;;;;;;;21.41;62.01;94821.56;4933645;29;20585;-84
2022/07/24 03:27:47;;;;;;;21.05;10.85;;;;;;;21.30;62.29;94814.81;4935294;29;20194;-84
2022/07/24 03:30:15;;;;;;;21.35;10.23;;;;;;;21.30;62.87;94821.94;4934389;29;20210;-85
2022/07/24 03:32:42;;;;;;;18.63;9.90;;;;;;;21.29;62.52;94818.53;4942022;29;20246;-84
2022/07/24 03:35:09;;;;;;;23.70;10.60;;;;;;;21.30;63.10;94814.81;4934650;29;20222;-84
2022/07/24 03:37:37;;;;;;;24.95;10.80;;;;;;;21.28;63.01;94822.22;4934398;29;20221;-84
2022/07/24 03:40:06;;;;;;;25.30;12.52;;;;;;;21.23;63.34;94819.66;4936204;29;21223;-84
2022/07/24 03:42:33;;;;;;;31.77;14.55;;;;;;;21.22;62.36;94826.00;4931141;29;20221;-84
2022/07/24 03:45:00;;;;;;;26.35;15.18;;;;;;;21.24;61.19;94820.44;4935776;29;20221;-84
2022/07/24 03:47:27;;;;;;;24.25;11.90;;;;;;;21.25;60.80;94828.09;4930075;29;20203;-83
2022/07/24 03:49:54;;;;;;;27.38;13.48;;;;;;;21.28;62.33;94826.72;4935788;29;20207;-83
2022/07/24 03:52:21;;;;;;;24.95;13.48;;;;;;;21.30;62.26;94819.28;4933595;29;20288;-83
2022/07/24 03:54:47;;;;;;;26.92;14.05;;;;;;;21.25;62.53;94800.84;4938855;29;20201;-83
2022/07/24 03:57:16;;;;;;;25.02;13.15;;;;;;;21.27;62.49;94818.00;4936536;29;20208;-84
2022/07/24 03:59:42;;;;;;;25.80;11.90;;;;;;;21.29;61.51;94813.25;4932956;29;20317;-82
2022/07/24 04:02:09;;;;;;;20.80;11.30;;;;;;;21.31;62.73;94816.38;4935253;29;20214;-82
2022/07/24 04:04:36;;;;;;;24.50;12.18;;;;;;;21.43;63.05;94830.00;4933217;29;20276;-83
2022/07/24 04:07:03;;;;;;;26.30;12.27;;;;;;;21.49;62.88;94830.75;4937492;29;20685;-83
2022/07/24 04:09:30;;;;;;;29.55;12.07;;;;;;;21.47;62.67;94815.16;4933200;29;20661;-84
2022/07/24 04:11:57;;;;;;;34.78;13.00;;;;;;;21.59;62.51;94824.56;4939665;29;20205;-84
2022/07/24 04:14:25;;;;;;;33.42;12.15;;;;;;;21.64;62.40;94824.50;4937920;29;20213;-84
2022/07/24 04:16:51;;;;;;;34.00;12.23;;;;;;;21.62;62.17;94823.97;4938723;29;20205;-84
2022/07/24 04:19:20;;;;;;;20.92;10.95;;;;;;;21.69;62.09;94830.53;4931667;29;20226;-84
2022/07/24 04:21:46;;;;;;;22.17;10.82;;;;;;;21.74;61.44;94825.16;4942301;29;20276;-83
2022/07/24 04:24:13;;;;;;;27.27;11.02;;;;;;;21.72;60.40;94818.56;4935808;29;20202;-83
2022/07/24 04:26:40;;;;;;;28.60;10.88;;;;;;;21.73;60.73;94828.88;4941920;29;20202;-84
2022/07/24 04:29:07;;;;;;;21.27;11.35;;;;;;;21.72;60.26;94829.16;4937580;29;20725;-84
2022/07/24 04:31:35;;;;;;;19.35;11.52;;;;;;;21.73;61.24;94836.03;4939456;29;20247;-84
2022/07/24 04:34:02;;;;;;;20.42;11.75;;;;;;;21.62;62.50;94827.41;4938799;29;20221;-84
2022/07/24 04:36:29;;;;;;;24.38;11.98;;;;;;;21.62;61.08;94823.97;4944537;29;20210;-84
2022/07/24 04:38:56;;;;;;;27.60;12.43;;;;;;;21.66;60.91;94840.88;4934098;29;20574;-83
2022/07/24 04:41:23;;;;;;;27.38;11.82;;;;;;;21.56;61.97;94835.72;4933706;29;20206;-84
2022/07/24 04:43:50;;;;;;;18.70;10.60;;;;;;;21.65;61.46;94844.56;4942487;29;20222;-83
2022/07/24 04:46:17;;;;;;;25.77;11.32;;;;;;;21.71;60.48;94838.16;4938209;29;20251;-83
2022/07/24 04:48:46;;;;;;;30.65;11.30;;;;;;;21.74;59.72;94833.09;4928689;29;20210;-84
2022/07/24 04:51:13;;;;;;;21.33;11.30;;;;;;;21.70;59.90;94842.66;4948928;28;20230;-82
2022/07/24 04:53:39;;;;;;;23.45;11.40;;;;;;;21.63;59.71;94821.06;4954506;28;20218;-83
2022/07/24 04:56:07;;;;;;;22.00;12.10;;;;;;;21.72;59.74;94829.16;4953102;28;20209;-83
2022/07/24 04:58:34;;;;;;;23.42;10.98;;;;;;;21.74;59.74;94825.16;4952012;28;20218;-84
2022/07/24 05:01:01;;;;;;;21.45;11.15;;;;;;;21.85;59.89;94831.91;4949122;28;20236;-84
2022/07/24 05:03:28;;;;;;;20.20;10.68;;;;;;;21.98;59.80;94835.75;4954396;28;20208;-83
2022/07/24 05:05:56;;;;;;;22.77;10.98;;;;;;;22.05;59.82;94829.03;4956018;28;20213;-82
2022/07/24 05:08:23;;;;;;;22.08;11.00;;;;;;;22.15;59.33;94840.56;4952463;28;20201;-82
2022/07/24 05:10:50;;;;;;;18.83;11.00;;;;;;;22.24;58.96;94842.28;4958737;28;20197;-82
2022/07/24 05:13:17;;;;;;;20.83;10.75;;;;;;;22.33;58.88;94853.81;4955714;28;21268;-82
2022/07/24 05:15:44;;;;;;;18.52;10.93;;;;;;;22.19;59.36;94852.97;4955901;28;20664;-83
2022/07/24 05:18:11;;;;;;;27.27;11.63;;;;;;;22.22;59.54;94852.38;4956878;28;20205;-86
2022/07/24 05:20:38;;;;;;;22.55;11.35;;;;;;;22.32;59.10;94851.44;4955611;28;20248;-83
2022/07/24 05:23:06;;;;;;;23.10;10.95;;;;;;;22.41;58.27;94847.09;4955198;28;20248;-83
2022/07/24 05:25:33;;;;;;;23.50;11.10;;;;;;;22.47;57.93;94844.09;4952074;28;20213;-83
2022/07/24 05:28:00;;;;;;;18.75;10.70;;;;;;;22.54;56.25;94844.50;4958061;28;20211;-85
2022/07/24 05:30:27;;;;;;;17.48;10.45;;;;;;;22.58;55.67;94845.50;4952747;28;20205;-81
2022/07/24 05:32:54;;;;;;;23.08;11.05;;;;;;;22.60;54.69;94847.84;4949888;29;20213;-79
2022/07/24 05:35:21;;;;;;;20.10;10.43;;;;;;;22.55;54.65;94846.09;4949428;28;20264;-79
2022/07/24 05:37:47;;;;;;;18.95;10.52;;;;;;;22.62;54.78;94851.03;4950768;28;20205;-79
2022/07/24 05:40:16;;;;;;;27.13;10.63;;;;;;;22.66;54.50;94848.59;4952603;28;20237;-78
2022/07/24 05:42:43;;;;;;;15.60;9.13;;;;;;;22.72;53.33;94845.59;4956082;28;20209;-78
2022/07/24 05:45:10;;;;;;;23.10;10.95;;;;;;;22.78;52.77;94844.44;4954653;28;20205;-79
2022/07/24 05:47:38;;;;;;;29.40;9.98;;;;;;;22.82;53.18;94837.50;4950310;28;21199;-80
2022/07/24 05:50:08;;;;;;;21.50;10.40;;;;;;;22.94;53.26;94837.03;4957870;28;20219;-81
2022/07/24 05:52:35;;;;;;;21.83;11.18;;;;;;;23.07;52.99;94839.72;4950149;28;20647;-79
2022/07/24 05:55:02;;;;;;;25.25;10.32;;;;;;;23.16;52.68;94845.94;4953547;28;20209;-79
2022/07/24 05:57:30;;;;;;;127.38;15.95;;;;;;;23.25;52.86;94842.59;4950812;28;20217;-80
2022/07/24 05:59:57;;;;;;;33.17;10.98;;;;;;;23.37;52.73;94832.31;4955442;28;20232;-82
2022/07/24 06:02:24;;;;;;;26.02;11.30;;;;;;;23.45;53.16;94831.66;4950083;28;20208;-81
2022/07/24 06:04:51;;;;;;;18.55;10.95;;;;;;;23.51;53.23;94839.25;4947826;28;20727;-79
2022/07/24 06:07:18;;;;;;;25.20;11.38;;;;;;;23.61;52.04;94847.00;4951952;28;20228;-80
2022/07/24 06:09:45;;;;;;;22.60;11.20;;;;;;;23.65;52.28;94841.88;4946466;28;20216;-81
2022/07/24 06:12:11;;;;;;;20.55;11.02;;;;;;;23.67;52.39;94851.13;4952449;28;20201;-82
2022/07/24 06:14:41;;;;;;;22.58;10.50;;;;;;;23.76;52.25;94845.91;4954155;28;20245;-80
2022/07/24 06:17:08;;;;;;;23.85;10.52;;;;;;;23.80;51.40;94840.81;4951226;28;20213;-83
2022/07/24 06:19:34;;;;;;;24.23;10.75;;;;;;;23.81;51.40;94842.38;4950883;28;20656;-82
2022/07/24 06:22:01;;;;;;;22.92;11.68;;;;;;;23.79;52.18;94836.56;4951289;28;20210;-81
2022/07/24 06:24:28;;;;;;;21.58;10.60;;;;;;;23.86;51.85;94829.00;4950151;28;20676;-80
2022/07/24 06:26:55;;;;;;;26.40;11.32;;;;;;;23.92;52.01;94833.13;4954844;28;20204;-81
2022/07/24 06:29:22;;;;;;;27.33;11.75;;;;;;;23.94;51.56;94828.31;4948965;28;20280;-82
2022/07/24 06:31:50;;;;;;;23.33;10.60;;;;;;;23.99;51.79;94836.16;4949820;28;20587;-80
2022/07/24 06:34:17;;;;;;;21.52;10.75;;;;;;;24.05;51.31;94838.41;4953618;28;20288;-81
2022/07/24 06:36:44;;;;;;;22.73;10.50;;;;;;;24.12;51.24;94827.44;4953292;28;20197;-81
2022/07/24 06:39:11;;;;;;;20.02;10.75;;;;;;;24.28;50.91;94826.00;4954095;28;20198;-81
2022/07/24 06:41:37;;;;;;;20.65;10.40;;;;;;;24.35;50.97;94825.59;4951424;28;20232;-81
2022/07/24 06:44:04;;;;;;;15.80;9.38;;;;;;;24.41;50.84;94824.41;4950742;28;20209;-81
2022/07/24 06:46:31;;;;;;;29.08;12.60;;;;;;;24.50;50.85;94819.97;4950443;28;20209;-81
2022/07/24 06:48:59;;;;;;;21.83;10.90;;;;;;;24.60;50.38;94817.06;4951039;28;20256;-82
2022/07/24 06:51:26;;;;;;;25.30;11.27;;;;;;;24.64;50.75;94812.72;4953404;28;20233;-82
2022/07/24 06:53:56;;;;;;;24.25;11.00;;;;;;;24.70;50.81;94816.81;4953371;28;20212;-81
2022/07/24 06:56:23;;;;;;;20.85;13.70;;;;;;;24.80;51.01;94812.06;4951340;28;20197;-82
2022/07/24 06:58:50;;;;;;;19.95;10.93;;;;;;;24.89;51.77;94811.34;4950401;28;20692;-82
2022/07/24 07:01:17;;;;;;;26.50;10.73;;;;;;;25.03;51.21;94807.50;4954532;28;20228;-82
2022/07/24 07:03:44;;;;;;;31.48;10.82;;;;;;;25.09;51.17;94806.31;4951489;28;20213;-82
2022/07/24 07:06:12;;;;;;;24.02;10.05;;;;;;;25.12;51.60;94808.34;4954112;28;20600;-82
2022/07/24 07:08:39;;;;;;;23.17;12.05;;;;;;;25.28;51.09;94806.09;4951493;28;20217;-82
2022/07/24 07:11:06;;;;;;;19.10;10.15;;;;;;;25.34;50.76;94802.19;4952035;28;20596;-82
2022/07/24 07:13:32;;;;;;;22.67;10.05;;;;;;;25.43;50.34;94805.69;4951323;28;20275;-82
2022/07/24 07:15:59;;;;;;;20.77;10.10;;;;;;;25.49;50.54;94815.13;4951308;28;20213;-81
2022/07/24 07:18:26;;;;;;;17.38;9.93;;;;;;;25.64;47.54;94812.06;4954755;28;20584;-83
2022/07/24 07:20:53;;;;;;;24.05;9.88;;;;;;;25.70;47.11;94804.72;4947778;28;20732;-83
2022/07/24 07:23:23;;;;;;;24.83;10.20;;;;;;;25.75;47.12;94808.03;4951315;28;20236;-80
2022/07/24 07:25:50;;;;;;;16.58;9.77;;;;;;;25.80;47.20;94807.88;4948242;28;20209;-83
2022/07/24 07:28:18;;;;;;;26.83;10.75;;;;;;;25.85;47.58;94807.75;4952557;28;20205;-83
2022/07/24 07:30:44;;;;;;;18.27;10.88;;;;;;;25.93;47.15;94804.31;4950554;28;20202;-80
2022/07/24 07:33:11;;;;;;;21.83;10.07;;;;;;;26.03;46.92;94811.25;4952029;28;20209;-83
2022/07/24 07:35:38;;;;;;;23.05;10.70;;;;;;;26.07;46.37;94803.38;4953242;28;20213;-82
2022/07/24 07:38:05;;;;;;;23.83;10.60;;;;;;;26.13;45.79;94797.59;4949342;28;20653;-81
2022/07/24 07:40:35;;;;;;;22.70;11.13;;;;;;;26.26;45.36;94799.34;4948999;28;20237;-80
2022/07/24 07:43:02;;;;;;;18.17;10.10;;;;;;;26.37;45.53;94795.31;4951221;28;20198;-80
2022/07/24 07:45:29;;;;;;;19.35;10.90;;;;;;;26.47;44.16;94799.53;4957113;28;20292;-80
2022/07/24 07:47:56;;;;;;;22.52;10.63;;;;;;;26.60;43.95;94795.94;4956123;28;20205;-82
2022/07/24 07:50:23;;;;;;;26.50;10.05;;;;;;;26.67;43.60;94798.91;4959355;28;20606;-82
2022/07/24 07:52:49;;;;;;;21.67;10.55;;;;;;;26.76;42.91;94804.22;4954253;28;20683;-78
2022/07/24 07:55:16;;;;;;;17.75;9.02;;;;;;;26.80;43.67;94797.19;4950987;28;20205;-89
2022/07/24 07:57:45;;;;;;;15.57;6.38;;;;;;;26.94;49.73;94803.94;4963631;28;20216;-85
2022/07/24 08:00:13;;;;;;;25.13;10.55;;;;;;;27.07;46.05;94802.16;4952449;28;20213;-87
2022/07/24 08:02:40;;;;;;;13.73;6.60;;;;;;;27.15;47.06;94808.59;4957606;28;20228;-87
2022/07/24 08:05:08;;;;;;;28.08;10.75;;;;;;;27.21;44.46;94810.78;4951593;28;20210;-87
2022/07/24 08:07:36;;;;;;;20.15;10.18;;;;;;;27.28;44.28;94810.28;4960642;28;20672;-88
2022/07/24 08:10:03;;;;;;;17.27;10.45;;;;;;;27.29;42.81;94804.63;4957857;28;20213;-86
2022/07/24 08:12:30;;;;;;;17.10;10.60;;;;;;;27.39;41.85;94806.16;4955894;28;20209;-85
2022/07/24 08:14:58;;;;;;;23.55;10.38;;;;;;;27.38;42.19;94793.91;4958397;28;20209;-87
2022/07/24 08:17:25;;;;;;;27.40;16.20;;;;;;;27.56;41.74;94796.22;4951894;28;20214;-85
2022/07/24 08:19:54;;;;;;;16.77;8.07;;;;;;;27.65;43.18;94803.44;4958431;28;20681;-86
2022/07/24 08:22:21;;;;;;;26.98;11.45;;;;;;;27.73;43.50;94802.59;4958004;28;20232;-86
2022/07/24 08:24:50;;;;;;;21.52;10.07;;;;;;;27.80;43.07;94808.22;4955080;28;20205;-85
2022/07/24 08:27:17;;;;;;;19.48;10.82;;;;;;;27.90;42.66;94797.97;4955048;28;20211;-81
2022/07/24 08:29:44;;;;;;;28.15;12.10;;;;;;;28.11;42.74;94808.69;4955231;28;20213;-84
2022/07/24 08:32:12;;;;;;;19.02;10.85;;;;;;;28.25;41.96;94803.91;4957261;28;20208;-76
2022/07/24 08:34:39;;;;;;;20.63;10.20;;;;;;;28.45;41.48;94807.69;4951968;28;20213;-76
2022/07/24 08:37:06;;;;;;;24.77;11.73;;;;;;;28.59;41.13;94800.97;4951326;28;20224;-76
2022/07/24 08:39:33;;;;;;;19.70;10.35;;;;;;;28.86;41.03;94806.91;4950629;28;20210;-76
2022/07/24 08:42:00;;;;;;;24.60;10.48;;;;;;;29.05;39.69;94802.63;4953843;28;20220;-74
2022/07/24 08:44:26;;;;;;;24.27;11.82;;;;;;;29.19;40.09;94802.31;4953778;28;20551;-74
2022/07/24 08:46:54;;;;;;;20.40;10.57;;;;;;;29.26;39.46;94806.03;4953402;28;20287;-73
2022/07/24 08:49:26;;;;;;;21.05;11.27;;;;;;;29.36;39.25;94810.19;4950184;28;20287;-74
2022/07/24 08:51:54;;;;;;;25.40;11.30;;;;;;;29.51;39.28;94795.38;4950869;28;20241;-74
2022/07/24 08:54:20;;;;;;;24.88;11.05;;;;;;;29.67;39.10;94804.28;4953214;28;20491;-74
2022/07/24 08:56:47;;;;;;;21.67;11.55;;;;;;;29.75;38.78;94796.19;4950230;28;20608;-81
2022/07/24 08:59:18;;;;;;;27.23;11.88;;;;;;;29.86;38.91;94799.22;4954567;28;20205;-80
2022/07/24 09:01:45;;;;;;;21.83;10.98;;;;;;;29.97;39.51;94794.97;4951388;28;20647;-76
2022/07/24 09:04:37;;;;;;;20.30;11.40;;;;;;;30.09;38.73;94799.53;4956790;28;20209;-80
2022/07/24 09:07:06;;;;;;;20.83;11.98;;;;;;;30.25;38.62;94803.06;4954476;28;20217;-80
2022/07/24 09:09:32;;;;;;;24.83;12.02;;;;;;;30.35;38.85;94792.66;4956324;28;20217;-82
2022/07/24 09:12:08;;;;;;;24.30;12.50;;;;;;;30.47;38.33;94796.47;4957014;28;20644;-82
2022/07/24 09:14:35;;;;;;;27.92;12.38;;;;;;;30.53;38.59;94790.53;4955225;28;20232;-79
2022/07/24 09:17:04;;;;;;;24.17;12.30;;;;;;;30.66;38.96;94791.25;4949847;28;20217;-80
2022/07/24 09:19:31;;;;;;;20.95;11.90;;;;;;;30.81;38.17;94790.53;4952481;28;20210;-82
2022/07/24 09:21:59;;;;;;;26.95;12.30;;;;;;;30.98;37.88;94787.56;4951040;28;20366;-78
2022/07/24 09:24:26;;;;;;;24.70;11.52;;;;;;;31.14;37.52;94795.66;4956804;28;20672;-79
2022/07/24 09:26:55;;;;;;;26.05;11.40;;;;;;;31.29;37.65;94790.31;4947500;28;20218;-80
2022/07/24 09:29:23;;;;;;;23.17;11.77;;;;;;;31.45;37.52;94788.44;4949728;28;20633;-79
2022/07/24 09:31:53;;;;;;;24.63;10.82;;;;;;;31.61;36.88;94785.75;4950890;28;20208;-80
2022/07/24 09:34:19;;;;;;;19.08;10.63;;;;;;;31.80;36.45;94796.59;4955322;28;20683;-80
2022/07/24 09:36:57;;;;;;;21.27;11.43;;;;;;;32.01;36.79;94794.41;4949490;28;20213;-78
2022/07/24 09:39:26;;;;;;;22.27;11.13;;;;;;;32.23;36.76;94792.22;4952236;28;20631;-80
2022/07/24 09:41:55;;;;;;;18.83;9.05;;;;;;;32.27;32.21;94798.44;4951787;28;20235;-79
2022/07/24 09:44:23;;;;;;;24.27;8.27;;;;;;;32.27;31.44;94790.34;4956710;28;20209;-76
2022/07/24 09:46:56;;;;;;;20.02;8.75;;;;;;;32.47;31.39;94790.03;4953625;28;20213;-79
2022/07/24 09:49:24;;;;;;;15.00;8.18;;;;;;;32.61;30.86;94791.50;4954334;28;20292;-78
2022/07/24 09:52:10;;;;;;;18.67;8.65;;;;;;;32.72;30.71;94779.03;4949429;28;20233;-81
2022/07/24 09:54:40;;;;;;;17.58;8.07;;;;;;;32.92;30.00;94791.34;4948418;28;20205;-81
2022/07/24 09:57:23;;;;;;;21.65;8.63;;;;;;;32.85;30.73;94773.13;4951366;28;20242;-84
2022/07/24 09:59:51;;;;;;;15.27;8.38;;;;;;;33.08;30.64;94784.75;4947945;28;20296;-81
2022/07/24 10:02:20;;;;;;;17.27;8.82;;;;;;;33.35;31.21;94780.25;4951343;28;20232;-77
2022/07/24 10:04:48;;;;;;;16.00;8.48;;;;;;;33.59;29.19;94785.28;4947761;28;21155;-83
2022/07/24 10:07:17;;;;;;;15.90;8.77;;;;;;;33.76;28.44;94785.94;4951868;28;20202;-82
2022/07/24 10:09:47;;;;;;;14.07;8.10;;;;;;;33.92;28.79;94784.66;4953229;28;20256;-83
2022/07/24 10:12:15;;;;;;;20.77;7.93;;;;;;;34.24;29.75;94768.97;4953834;28;20209;-78
2022/07/24 10:14:43;;;;;;;20.55;8.10;;;;;;;34.50;28.75;94778.94;4956033;28;20209;-78
2022/07/24 10:17:12;;;;;;;13.57;7.70;;;;;;;34.66;28.00;94776.88;4952938;28;20209;-86
2022/07/24 10:19:45;;;;;;;16.23;7.90;;;;;;;34.73;28.01;94777.72;4953397;28;20209;-77
2022/07/24 10:22:16;;;;;;;13.25;7.90;;;;;;;34.70;27.16;94769.56;4953497;28;20213;-77
2022/07/24 10:24:58;;;;;;;15.90;7.57;;;;;;;34.73;27.22;94772.31;4948461;28;20237;-76
2022/07/24 10:27:31;;;;;;;12.82;8.13;;;;;;;34.89;27.68;94766.72;4951419;28;20206;-79
2022/07/24 10:30:00;;;;;;;17.42;8.10;;;;;;;35.03;27.38;94769.56;4948204;28;20645;-80
2022/07/24 10:32:30;;;;;;;16.67;7.90;;;;;;;35.18;27.09;94768.59;4951243;28;20292;-79
2022/07/24 10:35:06;;;;;;;12.07;7.85;;;;;;;35.36;26.34;94755.22;4952056;28;20209;-78
2022/07/24 10:37:42;;;;;;;17.42;7.85;;;;;;;35.52;26.69;94763.09;4951037;28;20221;-78
2022/07/24 10:40:19;;;;;;;12.32;7.28;;;;;;;35.70;26.68;94759.41;4948189;28;20224;-78
2022/07/24 10:43:15;;;;;;;15.45;7.38;;;;;;;35.71;26.13;94768.31;4949666;28;20216;-78
2022/07/24 10:45:44;;;;;;;12.48;7.32;;;;;;;35.66;27.12;94761.31;4951160;28;20228;-81
2022/07/24 10:48:35;;;;;;;14.75;7.82;;;;;;;35.67;26.67;94765.56;4944775;28;20209;-78
2022/07/24 10:51:14;;;;;;;17.25;8.32;;;;;;;35.80;27.33;94756.03;4950265;28;20235;-79
2022/07/24 10:53:47;;;;;;;17.50;8.63;;;;;;;35.99;27.65;94760.38;4952468;28;20201;-79
2022/07/24 10:56:24;;;;;;;16.23;7.78;;;;;;;35.78;27.30;94744.81;4950584;28;20209;-78
2022/07/24 10:58:56;;;;;;;15.45;8.63;;;;;;;35.78;26.57;94752.91;4946800;28;20208;-78
2022/07/24 11:01:38;;;;;;;14.60;8.50;;;;;;;35.61;27.01;94744.66;4950261;28;20232;-80
2022/07/24 11:04:26;;;;;;;13.32;8.05;;;;;;;35.63;27.09;94737.72;4948298;28;20692;-80
2022/07/24 11:06:54;;;;;;;12.93;8.35;;;;;;;35.95;26.95;94746.06;4947221;28;20216;-80
2022/07/24 11:09:22;;;;;;;18.95;8.63;;;;;;;35.88;26.79;94744.09;4951444;28;20205;-80
2022/07/24 11:12:07;;;;;;;18.25;8.05;;;;;;;35.49;27.29;94726.75;4953096;28;20660;-80
2022/07/24 11:14:51;;;;;;;20.55;7.95;;;;;;;35.14;28.07;94721.81;4949354;28;20217;-80
2022/07/24 11:17:38;;;;;;;16.00;8.43;;;;;;;35.12;27.89;94726.06;4950964;28;20201;-80
2022/07/24 11:20:07;;;;;;;13.40;7.88;;;;;;;35.36;27.36;94730.88;4952280;28;20248;-83
2022/07/24 11:22:43;;;;;;;14.13;8.43;;;;;;;35.53;26.97;94730.25;4951522;28;20237;-78
2022/07/24 11:25:13;;;;;;;16.63;8.20;;;;;;;35.83;26.55;94730.13;4954970;28;20201;-79